MV Moseldijk — PBWK — position and weather

sailwx.info

Track history (hours):
 
Tides and Currents Weather Stations Pressure Air Temp Water Temp Dewpoint Dewpoint Depression Visibility Wind Speed Wind Dir Waves Ship Positions

MV Moseldijk

Last reported at 2015-Mar-24 09:33 UTC. Time now 2015-Mar-27 15:48 UTC.
Position N 59°02' W 004°24'.

Length 90 m; draft 6.3 m.

Type: Cargo ship. MMSI: 246644000.

Date/timePositionNaut miles runAvg speedWind from/ knotsBaromVisibWave heightAir tempDewpointWater temp
2015-Mar-24 09:33N 59°02' W 004°24'8 8.2
2015-Mar-24 08:33N 58°58' W 004°10'8 8.4
2015-Mar-24 07:33N 58°54' W 003°56'9 8.9
2015-Mar-24 06:33N 58°50' W 003°41'1210.3
2015-Mar-24 05:24N 58°44' W 003°20'1214.6
2015-Mar-24 04:33N 58°40' W 002°58'6210.3
2015-Mar-23 22:33N 57°49' W 001°52'1111.5
2015-Mar-23 21:34N 57°39' W 001°40'1212.2
2015-Mar-23 20:34N 57°27' W 001°41'  
2015-Mar-19 05:32N 56°02' W 001°35'68 9.6
2015-Mar-18 22:26N 55°06' W 000°27'1910.1
2015-Mar-18 20:33N 54°51' W 000°08'1010.4
2015-Mar-18 19:33N 54°42' E 000°03'1110.6
2015-Mar-18 18:33N 54°33' E 000°13'1110.6
2015-Mar-18 17:33N 54°25' E 000°24'1010.0
2015-Mar-18 16:33N 54°17' E 000°34'7210.2
2015-Mar-18 09:33N 53°15' E 001°37'1211.5
2015-Mar-18 08:33N 53°08' E 001°51'1010.6
2015-Mar-18 07:33N 53°01' E 002°05'6310.3
2015-Mar-18 01:30N 52°32' E 003°37'2311.5
2015-Mar-17 23:32N 52°31' E 004°14'1111.6
2015-Mar-17 22:34N 52°28' E 004°32'3 2.6
2015-Mar-17 21:33N 52°28' E 004°36'0 0.0
2015-Mar-17 20:33N 52°28' E 004°36'0 0.0
2015-Mar-17 19:33N 52°28' E 004°36'0 0.0
2015-Mar-17 18:24N 52°28' E 004°36'0 0.0
2015-Mar-17 17:33N 52°28' E 004°36'0 0.0
2015-Mar-17 16:33N 52°28' E 004°36'0 0.0
2015-Mar-17 15:24N 52°28' E 004°36'0 0.0
2015-Mar-17 14:06N 52°28' E 004°36'0 0.0
2015-Mar-17 13:06N 52°28' E 004°36'0 0.0
2015-Mar-17 11:12N 52°28' E 004°36'0 0.1
2015-Mar-17 10:33N 52°28' E 004°36'8 7.5
2015-Mar-17 09:31N 52°28' E 004°23'9 9.7
2015-Mar-17 08:33N 52°29' E 004°08'4 0.9
2015-Mar-17 04:32N 52°27' E 004°03'0 0.1
2015-Mar-17 03:29N 52°27' E 004°03'0 0.0
2015-Mar-17 01:29N 52°27' E 004°03'0 0.0
2015-Mar-17 00:29N 52°27' E 004°03'0 0.0
2015-Mar-16 23:14N 52°27' E 004°03'0 0.0
2015-Mar-16 22:29N 52°27' E 004°03'0 0.1
2015-Mar-16 21:29N 52°27' E 004°02'0 0.0
2015-Mar-16 16:29N 52°27' E 004°03'0 0.0
2015-Mar-16 15:29N 52°27' E 004°03'0 0.1
2015-Mar-16 13:29N 52°27' E 004°03'0 0.0
2015-Mar-16 11:11N 52°27' E 004°03'0 0.1
2015-Mar-16 08:05N 52°27' E 004°02'0 0.0
2015-Mar-16 03:32N 52°27' E 004°03'0 0.0
2015-Mar-16 02:26N 52°27' E 004°03'0 0.1
2015-Mar-16 01:20N 52°27' E 004°03'0 0.0
2015-Mar-16 00:23N 52°27' E 004°03'0 0.0
2015-Mar-15 23:23N 52°27' E 004°03'0 0.1
2015-Mar-15 20:11N 52°27' E 004°02'0 0.1
2015-Mar-15 19:23N 52°27' E 004°02'0 0.0
2015-Mar-15 12:23N 52°27' E 004°03'0 0.0
2015-Mar-15 11:29N 52°27' E 004°03'0 0.0
2015-Mar-15 09:32N 52°27' E 004°03'0 0.1
2015-Mar-15 08:32N 52°27' E 004°02'0 0.0
2015-Mar-15 00:05N 52°27' E 004°03'0 0.0
2015-Mar-14 20:26N 52°27' E 004°03'0 0.0
2015-Mar-14 16:29N 52°27' E 004°02'0 0.0
2015-Mar-14 15:20N 52°27' E 004°02'0 0.0
2015-Mar-14 14:29N 52°27' E 004°02'0 0.0
2015-Mar-14 13:26N 52°27' E 004°03'0 0.0
2015-Mar-14 12:32N 52°27' E 004°02'0 0.1
2015-Mar-14 11:33N 52°27' E 004°03'  
Track history (hours):
 
Tides and Currents Weather Stations Pressure Air Temp Water Temp Dewpoint Dewpoint Depression Visibility Wind Speed Wind Dir Waves Ship Positions

MV Moseldijk

Last reported at 2015-Mar-24 09:33 UTC. Time now 2015-Mar-27 15:48 UTC.
Position N 59°02' W 004°24'.

Length 90 m; draft 6.3 m.

Type: Cargo ship. MMSI: 246644000.

Date/timePositionNaut miles runAvg speedWind from/ knotsBaromVisibWave heightAir tempDewpointWater temp
2015-Mar-24 09:33N 59°02' W 004°24'8 8.2
2015-Mar-24 08:33N 58°58' W 004°10'8 8.4
2015-Mar-24 07:33N 58°54' W 003°56'9 8.9
2015-Mar-24 06:33N 58°50' W 003°41'1210.3
2015-Mar-24 05:24N 58°44' W 003°20'1214.6
2015-Mar-24 04:33N 58°40' W 002°58'6210.3
2015-Mar-23 22:33N 57°49' W 001°52'1111.5
2015-Mar-23 21:34N 57°39' W 001°40'1212.2
2015-Mar-23 20:34N 57°27' W 001°41'  
2015-Mar-19 05:32N 56°02' W 001°35'68 9.6
2015-Mar-18 22:26N 55°06' W 000°27'1910.1
2015-Mar-18 20:33N 54°51' W 000°08'1010.4
2015-Mar-18 19:33N 54°42' E 000°03'1110.6
2015-Mar-18 18:33N 54°33' E 000°13'1110.6
2015-Mar-18 17:33N 54°25' E 000°24'1010.0
2015-Mar-18 16:33N 54°17' E 000°34'7210.2
2015-Mar-18 09:33N 53°15' E 001°37'1211.5
2015-Mar-18 08:33N 53°08' E 001°51'1010.6
2015-Mar-18 07:33N 53°01' E 002°05'6310.3
2015-Mar-18 01:30N 52°32' E 003°37'2311.5
2015-Mar-17 23:32N 52°31' E 004°14'1111.6
2015-Mar-17 22:34N 52°28' E 004°32'3 2.6
2015-Mar-17 21:33N 52°28' E 004°36'0 0.0
2015-Mar-17 20:33N 52°28' E 004°36'0 0.0
2015-Mar-17 19:33N 52°28' E 004°36'0 0.0
2015-Mar-17 18:24N 52°28' E 004°36'0 0.0
2015-Mar-17 17:33N 52°28' E 004°36'0 0.0
2015-Mar-17 16:33N 52°28' E 004°36'0 0.0
2015-Mar-17 15:24N 52°28' E 004°36'0 0.0
2015-Mar-17 14:06N 52°28' E 004°36'0 0.0
2015-Mar-17 13:06N 52°28' E 004°36'0 0.0
2015-Mar-17 11:12N 52°28' E 004°36'0 0.1
2015-Mar-17 10:33N 52°28' E 004°36'8 7.5
2015-Mar-17 09:31N 52°28' E 004°23'9 9.7
2015-Mar-17 08:33N 52°29' E 004°08'4 0.9
2015-Mar-17 04:32N 52°27' E 004°03'0 0.1
2015-Mar-17 03:29N 52°27' E 004°03'0 0.0
2015-Mar-17 01:29N 52°27' E 004°03'0 0.0
2015-Mar-17 00:29N 52°27' E 004°03'0 0.0
2015-Mar-16 23:14N 52°27' E 004°03'0 0.0
2015-Mar-16 22:29N 52°27' E 004°03'0 0.1
2015-Mar-16 21:29N 52°27' E 004°02'0 0.0
2015-Mar-16 16:29N 52°27' E 004°03'0 0.0
2015-Mar-16 15:29N 52°27' E 004°03'0 0.1
2015-Mar-16 13:29N 52°27' E 004°03'0 0.0
2015-Mar-16 11:11N 52°27' E 004°03'0 0.1
2015-Mar-16 08:05N 52°27' E 004°02'0 0.0
2015-Mar-16 03:32N 52°27' E 004°03'0 0.0
2015-Mar-16 02:26N 52°27' E 004°03'0 0.1
2015-Mar-16 01:20N 52°27' E 004°03'0 0.0
2015-Mar-16 00:23N 52°27' E 004°03'0 0.0
2015-Mar-15 23:23N 52°27' E 004°03'0 0.1
2015-Mar-15 20:11N 52°27' E 004°02'0 0.1
2015-Mar-15 19:23N 52°27' E 004°02'0 0.0
2015-Mar-15 12:23N 52°27' E 004°03'0 0.0
2015-Mar-15 11:29N 52°27' E 004°03'0 0.0
2015-Mar-15 09:32N 52°27' E 004°03'0 0.1
2015-Mar-15 08:32N 52°27' E 004°02'0 0.0
2015-Mar-15 00:05N 52°27' E 004°03'0 0.0
2015-Mar-14 20:26N 52°27' E 004°03'0 0.0
2015-Mar-14 16:29N 52°27' E 004°02'0 0.0
2015-Mar-14 15:20N 52°27' E 004°02'0 0.0
2015-Mar-14 14:29N 52°27' E 004°02'0 0.0
2015-Mar-14 13:26N 52°27' E 004°03'0 0.0
2015-Mar-14 12:32N 52°27' E 004°02'0 0.1
2015-Mar-14 11:33N 52°27' E 004°03'  

Dump ship's entire track history